sensor_id;sensor_type;location;lat;lon;timestamp;pressure;altitude;pressure_sealevel;temperature;humidity
22025;BME280;11176;51.448;6.650;2022-12-07T00:01:31;45666.03;;;-141.29;100.00
22025;BME280;11176;51.448;6.650;2022-12-07T00:03:59;45650.03;;;-141.29;100.00
22025;BME280;11176;51.448;6.650;2022-12-07T00:06:40;45662.03;;;-141.29;100.00
22025;BME280;11176;51.448;6.650;2022-12-07T00:09:10;45652.03;;;-141.29;100.00
22025;BME280;11176;51.448;6.650;2022-12-07T00:11:37;45646.03;;;-141.29;100.00
22025;BME280;11176;51.448;6.650;2022-12-07T00:14:06;45676.03;;;-141.29;100.00
22025;BME280;11176;51.448;6.650;2022-12-07T00:16:34;45644.03;;;-141.29;100.00
22025;BME280;11176;51.448;6.650;2022-12-07T00:19:02;45640.03;;;-141.29;100.00
22025;BME280;11176;51.448;6.650;2022-12-07T00:21:32;45634.06;;;-141.29;100.00
22025;BME280;11176;51.448;6.650;2022-12-07T00:23:59;45676.03;;;-141.29;100.00
22025;BME280;11176;51.448;6.650;2022-12-07T00:26:32;45658.03;;;-141.29;100.00
22025;BME280;11176;51.448;6.650;2022-12-07T00:29:03;45676.03;;;-141.29;100.00
22025;BME280;11176;51.448;6.650;2022-12-07T00:31:33;45642.03;;;-141.29;100.00
22025;BME280;11176;51.448;6.650;2022-12-07T00:34:01;45646.03;;;-141.29;100.00
22025;BME280;11176;51.448;6.650;2022-12-07T00:36:27;45668.03;;;-141.29;100.00
22025;BME280;11176;51.448;6.650;2022-12-07T00:38:55;45646.03;;;-141.29;100.00
22025;BME280;11176;51.448;6.650;2022-12-07T00:41:24;45650.03;;;-141.29;100.00
22025;BME280;11176;51.448;6.650;2022-12-07T00:43:52;45666.03;;;-141.29;100.00
22025;BME280;11176;51.448;6.650;2022-12-07T00:46:20;45652.03;;;-141.29;100.00
22025;BME280;11176;51.448;6.650;2022-12-07T00:48:48;45634.06;;;-141.29;100.00
22025;BME280;11176;51.448;6.650;2022-12-07T00:51:16;45654.03;;;-141.29;100.00
22025;BME280;11176;51.448;6.650;2022-12-07T00:53:43;45666.03;;;-141.29;100.00
22025;BME280;11176;51.448;6.650;2022-12-07T00:56:22;45638.06;;;-141.29;100.00
22025;BME280;11176;51.448;6.650;2022-12-07T00:59:00;45666.03;;;-141.29;100.00
22025;BME280;11176;51.448;6.650;2022-12-07T01:01:30;45634.06;;;-141.29;100.00
22025;BME280;11176;51.448;6.650;2022-12-07T01:03:57;45672.03;;;-141.29;100.00
22025;BME280;11176;51.448;6.650;2022-12-07T01:06:25;45670.03;;;-141.29;100.00
22025;BME280;11176;51.448;6.650;2022-12-07T01:08:51;45646.03;;;-141.29;100.00
22025;BME280;11176;51.448;6.650;2022-12-07T01:11:20;45658.03;;;-141.29;100.00
22025;BME280;11176;51.448;6.650;2022-12-07T01:13:51;45654.03;;;-141.29;100.00
22025;BME280;11176;51.448;6.650;2022-12-07T01:16:18;45656.03;;;-141.29;100.00
22025;BME280;11176;51.448;6.650;2022-12-07T01:18:47;45666.03;;;-141.29;100.00
22025;BME280;11176;51.448;6.650;2022-12-07T01:21:17;45650.03;;;-141.29;100.00
22025;BME280;11176;51.448;6.650;2022-12-07T01:23:44;45658.03;;;-141.29;100.00
22025;BME280;11176;51.448;6.650;2022-12-07T01:26:13;45662.03;;;-141.29;100.00
22025;BME280;11176;51.448;6.650;2022-12-07T01:28:40;45652.03;;;-141.29;100.00
22025;BME280;11176;51.448;6.650;2022-12-07T01:31:12;45672.03;;;-141.29;100.00
22025;BME280;11176;51.448;6.650;2022-12-07T01:33:46;45672.03;;;-141.29;100.00
22025;BME280;11176;51.448;6.650;2022-12-07T01:36:14;45678.03;;;-141.29;100.00
22025;BME280;11176;51.448;6.650;2022-12-07T01:38:41;45678.03;;;-141.29;100.00
22025;BME280;11176;51.448;6.650;2022-12-07T01:41:08;45658.03;;;-141.29;100.00
22025;BME280;11176;51.448;6.650;2022-12-07T01:43:35;45670.03;;;-141.29;100.00
22025;BME280;11176;51.448;6.650;2022-12-07T01:46:03;45662.03;;;-141.29;100.00
22025;BME280;11176;51.448;6.650;2022-12-07T01:48:38;45666.03;;;-141.29;100.00
22025;BME280;11176;51.448;6.650;2022-12-07T01:51:10;45660.03;;;-141.29;100.00
22025;BME280;11176;51.448;6.650;2022-12-07T01:53:40;45654.03;;;-141.29;100.00
22025;BME280;11176;51.448;6.650;2022-12-07T01:56:11;45674.03;;;-141.29;100.00
22025;BME280;11176;51.448;6.650;2022-12-07T01:58:41;45672.03;;;-141.29;100.00
22025;BME280;11176;51.448;6.650;2022-12-07T02:01:07;45686.00;;;-141.29;100.00
22025;BME280;11176;51.448;6.650;2022-12-07T02:03:38;45670.03;;;-141.29;100.00
22025;BME280;11176;51.448;6.650;2022-12-07T02:06:06;45672.03;;;-141.29;100.00
22025;BME280;11176;51.448;6.650;2022-12-07T02:08:33;45650.03;;;-141.29;100.00
22025;BME280;11176;51.448;6.650;2022-12-07T02:11:02;45678.03;;;-141.29;100.00
22025;BME280;11176;51.448;6.650;2022-12-07T02:13:32;45682.00;;;-141.29;100.00
22025;BME280;11176;51.448;6.650;2022-12-07T02:16:30;45672.03;;;-141.29;100.00
22025;BME280;11176;51.448;6.650;2022-12-07T02:22:26;45680.03;;;-141.29;100.00
22025;BME280;11176;51.448;6.650;2022-12-07T02:25:06;45670.03;;;-141.29;100.00
22025;BME280;11176;51.448;6.650;2022-12-07T02:27:39;45680.03;;;-141.29;100.00
22025;BME280;11176;51.448;6.650;2022-12-07T02:30:19;45682.00;;;-141.29;100.00
22025;BME280;11176;51.448;6.650;2022-12-07T02:32:56;45690.00;;;-141.29;100.00
22025;BME280;11176;51.448;6.650;2022-12-07T02:35:30;45670.03;;;-141.29;100.00
22025;BME280;11176;51.448;6.650;2022-12-07T02:38:03;45692.00;;;-141.29;100.00
22025;BME280;11176;51.448;6.650;2022-12-07T02:43:41;45674.03;;;-141.29;100.00
22025;BME280;11176;51.448;6.650;2022-12-07T02:46:22;45654.03;;;-141.29;100.00
22025;BME280;11176;51.448;6.650;2022-12-07T02:48:51;45662.03;;;-141.29;100.00
22025;BME280;11176;51.448;6.650;2022-12-07T02:51:19;45704.00;;;-141.29;100.00
22025;BME280;11176;51.448;6.650;2022-12-07T02:53:45;45680.03;;;-141.29;100.00
22025;BME280;11176;51.448;6.650;2022-12-07T03:01:33;45674.03;;;-141.29;100.00
22025;BME280;11176;51.448;6.650;2022-12-07T03:07:21;45678.03;;;-141.29;100.00
22025;BME280;11176;51.448;6.650;2022-12-07T03:10:22;45678.03;;;-141.29;100.00
22025;BME280;11176;51.448;6.650;2022-12-07T03:13:25;45682.00;;;-141.29;100.00
22025;BME280;11176;51.448;6.650;2022-12-07T03:16:27;45674.03;;;-141.29;100.00
22025;BME280;11176;51.448;6.650;2022-12-07T03:19:07;45698.00;;;-141.29;100.00
22025;BME280;11176;51.448;6.650;2022-12-07T03:21:45;45682.00;;;-141.29;100.00
22025;BME280;11176;51.448;6.650;2022-12-07T03:24:17;45670.03;;;-141.29;100.00
22025;BME280;11176;51.448;6.650;2022-12-07T03:26:52;45702.00;;;-141.29;100.00
22025;BME280;11176;51.448;6.650;2022-12-07T03:29:28;45702.00;;;-141.29;100.00
22025;BME280;11176;51.448;6.650;2022-12-07T03:32:02;45700.00;;;-141.29;100.00
22025;BME280;11176;51.448;6.650;2022-12-07T03:34:35;45698.00;;;-141.29;100.00
22025;BME280;11176;51.448;6.650;2022-12-07T03:37:12;45690.00;;;-141.29;100.00
22025;BME280;11176;51.448;6.650;2022-12-07T03:39:50;45692.00;;;-141.29;100.00
22025;BME280;11176;51.448;6.650;2022-12-07T03:42:19;45694.00;;;-141.29;100.00
22025;BME280;11176;51.448;6.650;2022-12-07T03:44:45;45694.00;;;-141.29;100.00
22025;BME280;11176;51.448;6.650;2022-12-07T03:47:21;45670.03;;;-141.29;100.00
22025;BME280;11176;51.448;6.650;2022-12-07T03:52:46;45680.03;;;-141.29;100.00
22025;BME280;11176;51.448;6.650;2022-12-07T03:55:20;45686.00;;;-141.29;100.00
22025;BME280;11176;51.448;6.650;2022-12-07T03:57:51;45696.00;;;-141.29;100.00
22025;BME280;11176;51.448;6.650;2022-12-07T04:00:19;45678.03;;;-141.29;100.00
22025;BME280;11176;51.448;6.650;2022-12-07T04:02:51;45706.00;;;-141.29;100.00
22025;BME280;11176;51.448;6.650;2022-12-07T04:05:18;45682.00;;;-141.29;100.00
22025;BME280;11176;51.448;6.650;2022-12-07T04:07:45;45706.00;;;-141.29;100.00
22025;BME280;11176;51.448;6.650;2022-12-07T04:10:12;45672.03;;;-141.29;100.00
22025;BME280;11176;51.448;6.650;2022-12-07T04:12:38;45716.00;;;-141.29;100.00
22025;BME280;11176;51.448;6.650;2022-12-07T04:15:05;45706.00;;;-141.29;100.00
22025;BME280;11176;51.448;6.650;2022-12-07T04:17:32;45722.00;;;-141.29;100.00
22025;BME280;11176;51.448;6.650;2022-12-07T04:19:58;45686.00;;;-141.29;100.00
22025;BME280;11176;51.448;6.650;2022-12-07T04:22:25;45700.00;;;-141.29;100.00
22025;BME280;11176;51.448;6.650;2022-12-07T04:24:52;45684.00;;;-141.29;100.00
22025;BME280;11176;51.448;6.650;2022-12-07T04:27:18;45676.03;;;-141.29;100.00
22025;BME280;11176;51.448;6.650;2022-12-07T04:29:45;45700.00;;;-141.29;100.00
22025;BME280;11176;51.448;6.650;2022-12-07T04:32:12;45694.00;;;-141.29;100.00
22025;BME280;11176;51.448;6.650;2022-12-07T04:34:38;45706.00;;;-141.29;100.00
22025;BME280;11176;51.448;6.650;2022-12-07T04:37:05;45694.00;;;-141.29;100.00
22025;BME280;11176;51.448;6.650;2022-12-07T04:39:32;45702.00;;;-141.29;100.00
22025;BME280;11176;51.448;6.650;2022-12-07T04:42:00;45706.00;;;-141.29;100.00
22025;BME280;11176;51.448;6.650;2022-12-07T04:44:27;45698.00;;;-141.29;100.00
22025;BME280;11176;51.448;6.650;2022-12-07T04:46:55;45702.00;;;-141.29;100.00
22025;BME280;11176;51.448;6.650;2022-12-07T04:49:22;45694.00;;;-141.29;100.00
22025;BME280;11176;51.448;6.650;2022-12-07T04:51:49;45702.00;;;-141.29;100.00
22025;BME280;11176;51.448;6.650;2022-12-07T04:54:16;45694.00;;;-141.29;100.00
22025;BME280;11176;51.448;6.650;2022-12-07T04:56:43;45698.00;;;-141.29;100.00
22025;BME280;11176;51.448;6.650;2022-12-07T04:59:13;45690.00;;;-141.29;100.00
22025;BME280;11176;51.448;6.650;2022-12-07T05:01:41;45690.00;;;-141.29;100.00
22025;BME280;11176;51.448;6.650;2022-12-07T05:04:08;45706.00;;;-141.29;100.00
22025;BME280;11176;51.448;6.650;2022-12-07T05:06:34;45694.00;;;-141.29;100.00
22025;BME280;11176;51.448;6.650;2022-12-07T05:09:02;45698.00;;;-141.29;100.00
22025;BME280;11176;51.448;6.650;2022-12-07T05:11:28;45698.00;;;-141.29;100.00
22025;BME280;11176;51.448;6.650;2022-12-07T05:14:10;45692.00;;;-141.29;100.00
22025;BME280;11176;51.448;6.650;2022-12-07T05:16:38;45678.03;;;-141.29;100.00
22025;BME280;11176;51.448;6.650;2022-12-07T05:19:05;45694.00;;;-141.29;100.00
22025;BME280;11176;51.448;6.650;2022-12-07T05:21:32;45682.00;;;-141.29;100.00
22025;BME280;11176;51.448;6.650;2022-12-07T05:23:59;45694.00;;;-141.29;100.00
22025;BME280;11176;51.448;6.650;2022-12-07T05:26:25;45714.00;;;-141.29;100.00
22025;BME280;11176;51.448;6.650;2022-12-07T05:28:53;45686.00;;;-141.29;100.00
22025;BME280;11176;51.448;6.650;2022-12-07T05:31:20;45690.00;;;-141.29;100.00
22025;BME280;11176;51.448;6.650;2022-12-07T05:33:47;45686.00;;;-141.29;100.00
22025;BME280;11176;51.448;6.650;2022-12-07T05:36:14;45682.00;;;-141.29;100.00
22025;BME280;11176;51.448;6.650;2022-12-07T05:38:41;45698.00;;;-141.29;100.00
22025;BME280;11176;51.448;6.650;2022-12-07T05:41:08;45698.00;;;-141.29;100.00
22025;BME280;11176;51.448;6.650;2022-12-07T05:43:55;45698.00;;;-141.29;100.00
22025;BME280;11176;51.448;6.650;2022-12-07T05:46:22;45674.03;;;-141.29;100.00
22025;BME280;11176;51.448;6.650;2022-12-07T05:48:48;45706.00;;;-141.29;100.00
22025;BME280;11176;51.448;6.650;2022-12-07T05:51:15;45698.00;;;-141.29;100.00
22025;BME280;11176;51.448;6.650;2022-12-07T05:53:42;45714.00;;;-141.29;100.00
22025;BME280;11176;51.448;6.650;2022-12-07T05:56:08;45714.00;;;-141.29;100.00
22025;BME280;11176;51.448;6.650;2022-12-07T05:58:35;45690.00;;;-141.29;100.00
22025;BME280;11176;51.448;6.650;2022-12-07T06:01:20;45716.00;;;-141.29;100.00
22025;BME280;11176;51.448;6.650;2022-12-07T06:03:46;45700.00;;;-141.29;100.00
22025;BME280;11176;51.448;6.650;2022-12-07T06:06:13;45692.00;;;-141.29;100.00
22025;BME280;11176;51.448;6.650;2022-12-07T06:08:39;45678.03;;;-141.29;100.00
22025;BME280;11176;51.448;6.650;2022-12-07T06:11:06;45714.00;;;-141.29;100.00
22025;BME280;11176;51.448;6.650;2022-12-07T06:13:51;45686.00;;;-141.29;100.00
22025;BME280;11176;51.448;6.650;2022-12-07T06:16:17;45712.00;;;-141.29;100.00
22025;BME280;11176;51.448;6.650;2022-12-07T06:18:44;45710.00;;;-141.29;100.00
22025;BME280;11176;51.448;6.650;2022-12-07T06:21:10;45704.00;;;-141.29;100.00
22025;BME280;11176;51.448;6.650;2022-12-07T06:23:37;45682.00;;;-141.29;100.00
22025;BME280;11176;51.448;6.650;2022-12-07T06:26:03;45678.03;;;-141.29;100.00
22025;BME280;11176;51.448;6.650;2022-12-07T06:28:30;45686.00;;;-141.29;100.00
22025;BME280;11176;51.448;6.650;2022-12-07T06:30:58;45690.00;;;-141.29;100.00
22025;BME280;11176;51.448;6.650;2022-12-07T06:33:26;45704.00;;;-141.29;100.00
22025;BME280;11176;51.448;6.650;2022-12-07T06:35:52;45694.00;;;-141.29;100.00
22025;BME280;11176;51.448;6.650;2022-12-07T06:38:19;45694.00;;;-141.29;100.00
22025;BME280;11176;51.448;6.650;2022-12-07T06:40:46;45698.00;;;-141.29;100.00
22025;BME280;11176;51.448;6.650;2022-12-07T06:43:13;45690.00;;;-141.29;100.00
22025;BME280;11176;51.448;6.650;2022-12-07T06:45:41;45698.00;;;-141.29;100.00
22025;BME280;11176;51.448;6.650;2022-12-07T06:48:07;45710.00;;;-141.29;100.00
22025;BME280;11176;51.448;6.650;2022-12-07T06:50:34;45718.00;;;-141.29;100.00
22025;BME280;11176;51.448;6.650;2022-12-07T06:53:00;45698.00;;;-141.29;100.00
22025;BME280;11176;51.448;6.650;2022-12-07T06:55:26;45694.00;;;-141.29;100.00
22025;BME280;11176;51.448;6.650;2022-12-07T06:57:53;45710.00;;;-141.29;100.00
22025;BME280;11176;51.448;6.650;2022-12-07T07:00:20;45706.00;;;-141.29;100.00
22025;BME280;11176;51.448;6.650;2022-12-07T07:02:47;45694.00;;;-141.29;100.00
22025;BME280;11176;51.448;6.650;2022-12-07T07:05:14;45720.00;;;-141.29;100.00
22025;BME280;11176;51.448;6.650;2022-12-07T07:07:42;45722.00;;;-141.29;100.00
22025;BME280;11176;51.448;6.650;2022-12-07T07:10:28;45698.00;;;-141.29;100.00
22025;BME280;11176;51.448;6.650;2022-12-07T07:12:55;45682.00;;;-141.29;100.00
22025;BME280;11176;51.448;6.650;2022-12-07T07:15:23;45692.00;;;-141.29;100.00
22025;BME280;11176;51.448;6.650;2022-12-07T07:17:49;45694.00;;;-141.29;100.00
22025;BME280;11176;51.448;6.650;2022-12-07T07:20:16;45706.00;;;-141.29;100.00
22025;BME280;11176;51.448;6.650;2022-12-07T07:22:43;45704.00;;;-141.29;100.00
22025;BME280;11176;51.448;6.650;2022-12-07T07:25:09;45710.00;;;-141.29;100.00
22025;BME280;11176;51.448;6.650;2022-12-07T07:27:36;45720.00;;;-141.29;100.00
22025;BME280;11176;51.448;6.650;2022-12-07T07:30:04;45716.00;;;-141.29;100.00
22025;BME280;11176;51.448;6.650;2022-12-07T07:32:30;45708.00;;;-141.29;100.00
22025;BME280;11176;51.448;6.650;2022-12-07T07:34:57;45712.00;;;-141.29;100.00
22025;BME280;11176;51.448;6.650;2022-12-07T07:37:23;45704.00;;;-141.29;100.00
22025;BME280;11176;51.448;6.650;2022-12-07T07:39:50;45698.00;;;-141.29;100.00
22025;BME280;11176;51.448;6.650;2022-12-07T07:42:16;45702.00;;;-141.29;100.00
22025;BME280;11176;51.448;6.650;2022-12-07T07:44:45;45725.97;;;-141.29;100.00
22025;BME280;11176;51.448;6.650;2022-12-07T07:47:11;45710.00;;;-141.29;100.00
22025;BME280;11176;51.448;6.650;2022-12-07T07:49:37;45706.00;;;-141.29;100.00
22025;BME280;11176;51.448;6.650;2022-12-07T07:52:10;45725.97;;;-141.29;100.00
22025;BME280;11176;51.448;6.650;2022-12-07T07:54:36;45716.00;;;-141.29;100.00
22025;BME280;11176;51.448;6.650;2022-12-07T07:57:02;45696.00;;;-141.29;100.00
22025;BME280;11176;51.448;6.650;2022-12-07T07:59:29;45729.97;;;-141.29;100.00
22025;BME280;11176;51.448;6.650;2022-12-07T08:01:55;45702.00;;;-141.29;100.00
22025;BME280;11176;51.448;6.650;2022-12-07T08:04:22;45718.00;;;-141.29;100.00
22025;BME280;11176;51.448;6.650;2022-12-07T08:06:48;45722.00;;;-141.29;100.00
22025;BME280;11176;51.448;6.650;2022-12-07T08:09:15;45718.00;;;-141.29;100.00
22025;BME280;11176;51.448;6.650;2022-12-07T08:11:41;45714.00;;;-141.29;100.00
22025;BME280;11176;51.448;6.650;2022-12-07T08:14:10;45722.00;;;-141.29;100.00
22025;BME280;11176;51.448;6.650;2022-12-07T08:16:37;45722.00;;;-141.29;100.00
22025;BME280;11176;51.448;6.650;2022-12-07T08:19:04;45720.00;;;-141.29;100.00
22025;BME280;11176;51.448;6.650;2022-12-07T08:21:31;45725.97;;;-141.29;100.00
22025;BME280;11176;51.448;6.650;2022-12-07T08:23:57;45722.00;;;-141.29;100.00
22025;BME280;11176;51.448;6.650;2022-12-07T08:26:24;45722.00;;;-141.29;100.00
22025;BME280;11176;51.448;6.650;2022-12-07T08:28:52;45716.00;;;-141.29;100.00
22025;BME280;11176;51.448;6.650;2022-12-07T08:31:19;45722.00;;;-141.29;100.00
22025;BME280;11176;51.448;6.650;2022-12-07T08:33:46;45735.97;;;-141.29;100.00
22025;BME280;11176;51.448;6.650;2022-12-07T08:36:13;45718.00;;;-141.29;100.00
22025;BME280;11176;51.448;6.650;2022-12-07T08:38:41;45718.00;;;-141.29;100.00
22025;BME280;11176;51.448;6.650;2022-12-07T08:41:21;45698.00;;;-141.29;100.00
22025;BME280;11176;51.448;6.650;2022-12-07T08:43:47;45718.00;;;-141.29;100.00
22025;BME280;11176;51.448;6.650;2022-12-07T08:46:28;45735.97;;;-141.29;100.00
22025;BME280;11176;51.448;6.650;2022-12-07T08:49:05;45718.00;;;-141.29;100.00
22025;BME280;11176;51.448;6.650;2022-12-07T08:51:34;45698.00;;;-141.29;100.00
22025;BME280;11176;51.448;6.650;2022-12-07T08:54:04;45714.00;;;-141.29;100.00
22025;BME280;11176;51.448;6.650;2022-12-07T08:56:31;45708.00;;;-141.29;100.00
22025;BME280;11176;51.448;6.650;2022-12-07T08:58:58;45718.00;;;-141.29;100.00
22025;BME280;11176;51.448;6.650;2022-12-07T09:01:25;45714.00;;;-141.29;100.00
22025;BME280;11176;51.448;6.650;2022-12-07T09:03:51;45700.00;;;-141.29;100.00
22025;BME280;11176;51.448;6.650;2022-12-07T09:06:18;45698.00;;;-141.29;100.00
22025;BME280;11176;51.448;6.650;2022-12-07T09:08:47;45704.00;;;-141.29;100.00
22025;BME280;11176;51.448;6.650;2022-12-07T09:11:15;45725.97;;;-141.29;100.00
22025;BME280;11176;51.448;6.650;2022-12-07T09:13:41;45690.00;;;-141.29;100.00
22025;BME280;11176;51.448;6.650;2022-12-07T09:16:08;45678.03;;;-141.29;100.00
22025;BME280;11176;51.448;6.650;2022-12-07T09:18:35;45706.00;;;-141.29;100.00
22025;BME280;11176;51.448;6.650;2022-12-07T09:21:01;45684.00;;;-141.29;100.00
22025;BME280;11176;51.448;6.650;2022-12-07T09:23:28;45682.00;;;-141.29;100.00
22025;BME280;11176;51.448;6.650;2022-12-07T09:25:54;45678.03;;;-141.29;100.00
22025;BME280;11176;51.448;6.650;2022-12-07T09:28:21;45696.00;;;-141.29;100.00
22025;BME280;11176;51.448;6.650;2022-12-07T09:30:48;45686.00;;;-141.29;100.00
22025;BME280;11176;51.448;6.650;2022-12-07T09:33:35;45686.00;;;-141.29;100.00
22025;BME280;11176;51.448;6.650;2022-12-07T09:36:03;45702.00;;;-141.29;100.00
22025;BME280;11176;51.448;6.650;2022-12-07T09:38:30;45694.00;;;-141.29;100.00
22025;BME280;11176;51.448;6.650;2022-12-07T09:41:04;45686.00;;;-141.29;100.00
22025;BME280;11176;51.448;6.650;2022-12-07T09:43:30;45676.03;;;-141.29;100.00
22025;BME280;11176;51.448;6.650;2022-12-07T09:45:57;45698.00;;;-141.29;100.00
22025;BME280;11176;51.448;6.650;2022-12-07T09:50:59;45674.03;;;-141.29;100.00
22025;BME280;11176;51.448;6.650;2022-12-07T09:53:29;45676.03;;;-141.29;100.00
22025;BME280;11176;51.448;6.650;2022-12-07T09:55:56;45686.00;;;-141.29;100.00
22025;BME280;11176;51.448;6.650;2022-12-07T09:58:24;45678.03;;;-141.29;100.00
22025;BME280;11176;51.448;6.650;2022-12-07T10:01:17;45678.03;;;-141.29;100.00
22025;BME280;11176;51.448;6.650;2022-12-07T10:03:51;45670.03;;;-141.29;100.00
22025;BME280;11176;51.448;6.650;2022-12-07T10:06:18;45674.03;;;-141.29;100.00
22025;BME280;11176;51.448;6.650;2022-12-07T10:08:45;45682.00;;;-141.29;100.00
22025;BME280;11176;51.448;6.650;2022-12-07T10:11:12;45670.03;;;-141.29;100.00
22025;BME280;11176;51.448;6.650;2022-12-07T10:13:42;45684.00;;;-141.29;100.00
22025;BME280;11176;51.448;6.650;2022-12-07T10:18:50;45688.00;;;-141.29;100.00
22025;BME280;11176;51.448;6.650;2022-12-07T10:21:19;45662.03;;;-141.29;100.00
22025;BME280;11176;51.448;6.650;2022-12-07T10:24:13;45664.03;;;-141.29;100.00
22025;BME280;11176;51.448;6.650;2022-12-07T10:29:48;45658.03;;;-141.29;100.00
22025;BME280;11176;51.448;6.650;2022-12-07T10:34:43;45670.03;;;-141.29;100.00
22025;BME280;11176;51.448;6.650;2022-12-07T10:37:19;45658.03;;;-141.29;100.00
22025;BME280;11176;51.448;6.650;2022-12-07T10:39:51;45662.03;;;-141.29;100.00
22025;BME280;11176;51.448;6.650;2022-12-07T10:42:36;45634.06;;;-141.29;98.91
22025;BME280;11176;51.448;6.650;2022-12-07T10:45:29;45666.03;;;-141.29;98.71
22025;BME280;11176;51.448;6.650;2022-12-07T10:48:18;45672.03;;;-141.29;97.52
22025;BME280;11176;51.448;6.650;2022-12-07T10:53:44;45664.03;;;-141.29;96.54
22025;BME280;11176;51.448;6.650;2022-12-07T10:56:35;45650.03;;;-141.29;95.39
22025;BME280;11176;51.448;6.650;2022-12-07T11:04:57;45646.03;;;-141.29;93.29
22025;BME280;11176;51.448;6.650;2022-12-07T11:07:43;45626.06;;;-141.29;92.96
22025;BME280;11176;51.448;6.650;2022-12-07T11:13:24;45628.06;;;-141.29;92.22
22025;BME280;11176;51.448;6.650;2022-12-07T11:16:04;45630.06;;;-141.29;91.95
22025;BME280;11176;51.448;6.650;2022-12-07T11:29:54;45628.06;;;-141.29;91.52
22025;BME280;11176;51.448;6.650;2022-12-07T11:39:33;45610.06;;;-141.29;88.37
22025;BME280;11176;51.448;6.650;2022-12-07T11:42:05;45632.06;;;-141.29;88.33
22025;BME280;11176;51.448;6.650;2022-12-07T11:45:00;45598.06;;;-141.29;88.90
22025;BME280;11176;51.448;6.650;2022-12-07T11:47:35;45618.06;;;-141.29;88.88
22025;BME280;11176;51.448;6.650;2022-12-07T11:52:53;45634.06;;;-141.29;89.26
22025;BME280;11176;51.448;6.650;2022-12-07T11:55:42;45620.06;;;-141.29;88.69
22025;BME280;11176;51.448;6.650;2022-12-07T12:01:39;45630.06;;;-141.29;88.70
22025;BME280;11176;51.448;6.650;2022-12-07T12:06:39;45626.06;;;-141.29;89.42
22025;BME280;11176;51.448;6.650;2022-12-07T12:09:34;45626.06;;;-141.29;89.38
22025;BME280;11176;51.448;6.650;2022-12-07T12:21:17;45630.06;;;-141.29;90.47
22025;BME280;11176;51.448;6.650;2022-12-07T12:23:50;45626.06;;;-141.29;89.81
22025;BME280;11176;51.448;6.650;2022-12-07T12:26:23;45638.06;;;-141.29;89.88
22025;BME280;11176;51.448;6.650;2022-12-07T12:28:54;45622.06;;;-141.29;90.74
22025;BME280;11176;51.448;6.650;2022-12-07T12:33:53;45630.06;;;-141.29;89.71
22025;BME280;11176;51.448;6.650;2022-12-07T12:36:25;45614.06;;;-141.29;89.34
22025;BME280;11176;51.448;6.650;2022-12-07T12:46:53;45622.06;;;-141.29;90.34
22025;BME280;11176;51.448;6.650;2022-12-07T12:57:13;45628.06;;;-141.29;90.95
22025;BME280;11176;51.448;6.650;2022-12-07T13:05:01;45626.06;;;-141.29;91.12
22025;BME280;11176;51.448;6.650;2022-12-07T13:12:58;45620.06;;;-141.29;90.29
22025;BME280;11176;51.448;6.650;2022-12-07T13:15:38;45602.06;;;-141.29;90.76
22025;BME280;11176;51.448;6.650;2022-12-07T13:23:37;45630.06;;;-141.29;90.04
22025;BME280;11176;51.448;6.650;2022-12-07T13:31:39;45626.06;;;-141.29;88.56
22025;BME280;11176;51.448;6.650;2022-12-07T13:34:32;45606.06;;;-141.29;87.87
22025;BME280;11176;51.448;6.650;2022-12-07T13:37:00;45612.06;;;-141.29;87.76
22025;BME280;11176;51.448;6.650;2022-12-07T13:39:28;45602.06;;;-141.29;87.48
22025;BME280;11176;51.448;6.650;2022-12-07T13:41:57;45616.06;;;-141.29;87.47
22025;BME280;11176;51.448;6.650;2022-12-07T13:44:26;45634.06;;;-141.29;87.88
22025;BME280;11176;51.448;6.650;2022-12-07T13:49:50;45614.06;;;-141.29;87.72
22025;BME280;11176;51.448;6.650;2022-12-07T13:52:30;45622.06;;;-141.29;87.30
22025;BME280;11176;51.448;6.650;2022-12-07T13:54:59;45640.03;;;-141.29;87.70
22025;BME280;11176;51.448;6.650;2022-12-07T13:57:30;45634.06;;;-141.29;87.86
22025;BME280;11176;51.448;6.650;2022-12-07T13:59:58;45612.06;;;-141.29;86.97
22025;BME280;11176;51.448;6.650;2022-12-07T14:02:30;45606.06;;;-141.29;87.06
22025;BME280;11176;51.448;6.650;2022-12-07T14:05:14;45614.06;;;-141.29;87.37
22025;BME280;11176;51.448;6.650;2022-12-07T14:13:37;45606.06;;;-141.29;87.50
22025;BME280;11176;51.448;6.650;2022-12-07T14:18:44;45626.06;;;-141.29;87.70
22025;BME280;11176;51.448;6.650;2022-12-07T14:23:38;45638.06;;;-141.29;88.05
22025;BME280;11176;51.448;6.650;2022-12-07T14:26:19;45620.06;;;-141.29;88.30
22025;BME280;11176;51.448;6.650;2022-12-07T14:28:46;45614.06;;;-141.29;88.67
22025;BME280;11176;51.448;6.650;2022-12-07T14:31:18;45626.06;;;-141.29;88.62
22025;BME280;11176;51.448;6.650;2022-12-07T14:33:59;45622.06;;;-141.29;88.87
22025;BME280;11176;51.448;6.650;2022-12-07T14:36:25;45642.03;;;-141.29;88.96
22025;BME280;11176;51.448;6.650;2022-12-07T14:38:51;45642.03;;;-141.29;88.98
22025;BME280;11176;51.448;6.650;2022-12-07T14:41:21;45634.06;;;-141.29;89.57
22025;BME280;11176;51.448;6.650;2022-12-07T14:44:11;45632.06;;;-141.29;89.72
22025;BME280;11176;51.448;6.650;2022-12-07T14:46:58;45618.06;;;-141.29;90.08
22025;BME280;11176;51.448;6.650;2022-12-07T14:49:44;45606.06;;;-141.29;90.34
22025;BME280;11176;51.448;6.650;2022-12-07T14:52:16;45638.06;;;-141.29;90.80
22025;BME280;11176;51.448;6.650;2022-12-07T14:55:03;45632.06;;;-141.29;91.40
22025;BME280;11176;51.448;6.650;2022-12-07T14:57:30;45642.03;;;-141.29;91.69
22025;BME280;11176;51.448;6.650;2022-12-07T14:59:57;45622.06;;;-141.29;91.95
22025;BME280;11176;51.448;6.650;2022-12-07T15:02:23;45652.03;;;-141.29;92.38